Time;durP1;ratioP1;P1;durP2;ratioP2;P2;SDS_P1;SDS_P2;PMS_P1;PMS_P2;Temp;Humidity;BMP_temperature;BMP_pressure;BME280_temperature;BME280_humidity;BME280_pressure;Samples;Min_cycle;Max_cycle;Signal;HPM_P1;HPM_P2
2023/06/16 00:03:23;;;;;;;;;13.00;13.00;;;;;24.67;42.31;68880.13;4891288;28;45765;-90
2023/06/16 00:05:48;;;;;;;;;12.67;10.67;;;;;24.17;42.43;68705.94;4911319;28;45313;-89
2023/06/16 00:08:15;;;;;;;;;15.00;15.00;;;;;24.94;42.54;68832.44;4892510;28;45567;-90
2023/06/16 00:10:40;;;;;;;;;17.33;17.00;;;;;24.72;42.53;68823.84;4891274;28;45596;-90
2023/06/16 00:13:05;;;;;;;;;14.33;13.00;;;;;24.63;42.56;68786.16;4896563;29;45478;-89
2023/06/16 00:15:31;;;;;;;;;16.67;16.67;;;;;24.66;42.61;68730.22;4897731;29;46033;-90
2023/06/16 00:17:56;;;;;;;;;13.33;13.33;;;;;24.42;43.29;68724.66;4897659;29;45895;-90
2023/06/16 00:20:24;;;;;;;;;14.00;14.00;;;;;24.88;43.56;68660.94;4896123;29;45870;-90
2023/06/16 00:22:49;;;;;;;;;18.00;16.33;;;;;24.67;43.38;68647.56;4897155;29;45480;-90
2023/06/16 00:25:16;;;;;;;;;27.50;23.50;;;;;24.60;43.84;68536.56;4897503;29;45558;-89
2023/06/16 00:27:41;;;;;;;;;28.00;25.00;;;;;24.25;44.15;68363.53;4897125;28;45594;-90
2023/06/16 00:30:07;;;;;;;;;23.33;22.33;;;;;24.88;44.29;68236.28;4895899;28;45870;-89
2023/06/16 00:32:32;;;;;;;;;28.33;28.00;;;;;24.43;44.66;68171.75;4896523;28;45401;-90
2023/06/16 00:34:58;;;;;;;;;29.67;28.00;;;;;24.20;44.67;68036.72;4896995;28;45470;-90
2023/06/16 00:37:23;;;;;;;;;29.00;24.00;;;;;24.31;44.81;68049.00;4897511;29;45493;-90
2023/06/16 00:39:49;;;;;;;;;24.00;22.67;;;;;24.46;44.92;67971.38;4896618;29;45838;-89
2023/06/16 00:42:14;;;;;;;;;25.67;23.33;;;;;24.42;45.00;67881.41;4896783;29;45485;-89
2023/06/16 00:44:39;;;;;;;;;22.33;21.33;;;;;24.56;45.35;67856.63;4897328;28;45823;-89
2023/06/16 00:47:06;;;;;;;;;22.67;21.33;;;;;24.15;45.44;67720.22;4897409;29;45521;-89
2023/06/16 00:49:31;;;;;;;;;25.00;23.00;;;;;24.60;45.60;67698.53;4896190;28;46795;-89
2023/06/16 00:51:58;;;;;;;;;20.67;20.67;;;;;24.34;45.11;67741.78;4896724;28;45495;-90
2023/06/16 00:54:23;;;;;;;;;23.00;22.00;;;;;24.44;45.34;67737.81;4867319;29;45560;-90
2023/06/16 00:56:51;;;;;;;;;21.67;21.00;;;;;24.46;45.76;67614.63;4876945;29;45525;-90
2023/06/16 00:59:16;;;;;;;;;24.67;20.67;;;;;24.46;44.92;67630.84;4883732;29;46100;-90
2023/06/16 01:01:42;;;;;;;;;20.67;18.67;;;;;24.45;44.78;67689.72;4895762;28;45761;-90
2023/06/16 01:04:07;;;;;;;;;25.67;23.67;;;;;24.44;45.26;67599.38;4896857;28;45365;-89
2023/06/16 01:06:41;;;;;;;;;23.33;22.00;;;;;24.39;45.60;67586.03;4896640;28;45333;-90
2023/06/16 01:09:21;;;;;;;;;29.33;25.00;;;;;24.34;44.90;67553.22;4896372;29;47201;-90
2023/06/16 01:12:07;;;;;;;;;27.67;26.67;;;;;24.13;45.12;67501.81;4878964;29;45535;-90
2023/06/16 01:14:51;;;;;;;;;23.67;23.67;;;;;24.28;45.83;67448.41;4920897;28;45519;-89
2023/06/16 01:17:22;;;;;;;;;20.00;18.67;;;;;23.99;45.49;67345.72;4937386;28;45679;-89
2023/06/16 01:20:01;;;;;;;;;27.33;24.67;;;;;24.12;45.36;67314.31;4902136;28;46407;-90
2023/06/16 01:22:53;;;;;;;;;24.67;24.67;;;;;24.17;46.26;67158.59;4880624;28;45496;-91
2023/06/16 01:25:22;;;;;;;;;23.33;22.33;;;;;24.15;46.07;67074.69;4896854;28;45537;-90
2023/06/16 01:27:51;;;;;;;;;20.33;20.00;;;;;24.15;46.26;66967.22;4883220;29;45525;-89
2023/06/16 01:30:19;;;;;;;;;22.67;20.33;;;;;24.10;46.28;66828.59;4873775;29;46131;-90
2023/06/16 01:32:48;;;;;;;;;21.00;21.00;;;;;24.01;46.69;66743.19;4882430;29;45450;-90
2023/06/16 01:35:16;;;;;;;;;21.67;21.67;;;;;23.92;46.59;66563.38;4877602;29;45470;-90
2023/06/16 01:37:43;;;;;;;;;19.67;17.33;;;;;23.76;46.68;66385.81;4922252;28;45610;-90
2023/06/16 01:40:10;;;;;;;;;19.00;19.00;;;;;23.93;47.08;66377.69;4893204;28;45418;-90
2023/06/16 01:42:36;;;;;;;;;19.67;18.00;;;;;23.78;46.75;66288.25;4888967;29;45582;-89
2023/06/16 01:45:03;;;;;;;;;20.33;18.33;;;;;23.86;47.46;66151.66;4892305;29;45437;-90
2023/06/16 01:47:29;;;;;;;;;19.67;18.33;;;;;23.62;46.99;66119.44;4915159;28;45611;-90
2023/06/16 01:49:56;;;;;;;;;20.33;18.67;;;;;23.68;47.09;65926.06;4912128;28;48098;-90
2023/06/16 01:52:21;;;;;;;;;18.33;18.33;;;;;23.60;47.62;65726.03;4895730;28;45530;-90
2023/06/16 01:54:47;;;;;;;;;21.33;19.33;;;;;23.47;47.99;65528.47;4894402;29;45395;-89
2023/06/16 01:57:12;;;;;;;;;17.67;16.67;;;;;23.67;47.89;65463.59;4890206;28;45654;-89
2023/06/16 01:59:38;;;;;;;;;15.67;15.67;;;;;23.45;47.87;65380.03;4895169;28;46483;-86
2023/06/16 02:02:11;;;;;;;;;15.00;15.00;;;;;23.33;47.53;65299.69;4889783;29;45407;-90
2023/06/16 02:04:40;;;;;;;;;17.67;16.00;;;;;23.46;47.50;65364.97;4877109;29;45716;-89
2023/06/16 02:07:18;;;;;;;;;18.67;17.33;;;;;23.50;47.05;65423.41;4879868;29;45464;-89
2023/06/16 02:09:45;;;;;;;;;17.67;16.33;;;;;23.59;47.38;65417.94;4888200;29;45920;-89
2023/06/16 02:12:12;;;;;;;;;17.33;15.67;;;;;23.55;47.47;65496.47;4884580;29;45405;-89
2023/06/16 02:14:39;;;;;;;;;13.67;13.67;;;;;23.41;47.56;65300.03;4887550;28;45400;-90
2023/06/16 02:17:07;;;;;;;;;15.67;15.33;;;;;23.38;47.48;65074.00;4895151;29;45419;-90
2023/06/16 02:19:33;;;;;;;;;17.67;15.00;;;;;23.50;47.89;64991.94;4897096;28;45545;-90
2023/06/16 02:22:00;;;;;;;;;12.67;12.67;;;;;23.48;47.79;64763.75;4904303;28;45781;-89
2023/06/16 02:24:26;;;;;;;;;14.33;14.33;;;;;23.44;47.10;65055.91;4883739;29;45349;-91
2023/06/16 02:26:51;;;;;;;;;13.33;13.33;;;;;23.24;47.93;64955.31;4892194;28;45435;-90
2023/06/16 02:29:17;;;;;;;;;15.67;14.33;;;;;23.14;47.34;64823.94;4894446;29;46235;-90
2023/06/16 02:31:47;;;;;;;;;15.00;14.00;;;;;23.33;47.41;64812.28;4898144;29;45934;-90
2023/06/16 02:34:12;;;;;;;;;13.33;13.33;;;;;23.14;47.90;64745.25;4895566;29;45479;-91
2023/06/16 02:36:38;;;;;;;;;14.00;14.00;;;;;23.15;47.79;64585.22;4888568;29;45495;-91
2023/06/16 02:39:07;;;;;;;;;14.67;14.67;;;;;22.93;48.04;64380.75;4889668;29;45797;-90
2023/06/16 02:41:33;;;;;;;;;16.67;15.33;;;;;22.86;48.06;64216.78;4882570;29;45424;-91
2023/06/16 02:43:59;;;;;;;;;18.67;16.00;;;;;23.18;48.74;64049.06;4885053;29;45679;-90
2023/06/16 02:46:24;;;;;;;;;14.33;13.00;;;;;23.05;48.23;63946.34;4898443;28;45554;-91
2023/06/16 02:48:49;;;;;;;;;14.00;14.00;;;;;22.95;48.25;63803.84;4907389;28;59186;-90
2023/06/16 02:51:14;;;;;;;;;15.67;15.00;;;;;22.75;48.70;63550.28;4953567;28;45429;-88
2023/06/16 02:53:41;;;;;;;;;14.67;14.67;;;;;22.93;48.38;63308.78;4895851;28;45295;-90
2023/06/16 02:56:07;;;;;;;;;17.67;16.33;;;;;22.99;48.99;63199.00;4898128;29;45531;-89
2023/06/16 02:58:32;;;;;;;;;18.33;16.33;;;;;23.04;48.81;63261.03;4897284;29;46253;-88
2023/06/16 03:00:58;;;;;;;;;16.33;16.33;;;;;22.89;49.22;62994.22;4897774;28;45468;-88
2023/06/16 03:03:25;;;;;;;;;21.33;17.67;;;;;22.81;49.23;62889.16;4897848;29;45538;-90
2023/06/16 03:05:50;;;;;;;;;13.67;13.67;;;;;23.01;48.89;62780.53;4898486;29;45483;-90
2023/06/16 03:08:16;;;;;;;;;17.00;17.00;;;;;22.78;48.65;62815.91;4887590;29;45923;-90
2023/06/16 03:10:41;;;;;;;;;14.33;14.00;;;;;22.70;49.09;62713.53;4906647;28;45811;-92
2023/06/16 03:13:07;;;;;;;;;366.00;365.67;;;;;22.66;49.11;62698.44;4916642;28;45500;-90
2023/06/16 03:15:32;;;;;;;;;15.67;14.00;;;;;22.82;49.37;62477.78;4902171;28;45784;-90
2023/06/16 03:17:57;;;;;;;;;15.33;14.67;;;;;22.69;49.45;62066.53;4897030;29;46132;-90
2023/06/16 03:20:23;;;;;;;;;14.00;14.00;;;;;22.73;49.74;61973.38;4896452;29;45527;-91
2023/06/16 03:22:48;;;;;;;;;16.33;14.33;;;;;22.70;49.93;61787.72;4897054;29;45378;-90
2023/06/16 03:25:15;;;;;;;;;15.67;15.67;;;;;22.48;50.02;61538.81;4897667;29;45377;-90
2023/06/16 03:27:41;;;;;;;;;17.67;16.67;;;;;22.55;49.44;61411.22;4891849;29;47047;-90
2023/06/16 03:30:08;;;;;;;;;15.00;15.00;;;;;22.54;50.23;61042.16;4894185;28;45495;-90
2023/06/16 03:32:33;;;;;;;;;18.00;17.00;;;;;22.43;49.59;60855.22;4890604;28;45471;-91
2023/06/16 03:35:02;;;;;;;;;17.00;17.00;;;;;22.53;49.69;60858.22;4900448;28;45503;-89
2023/06/16 03:37:27;;;;;;;;;17.00;17.00;;;;;22.33;49.39;60861.88;4898849;28;46689;-89
2023/06/16 03:39:53;;;;;;;;;23.00;22.00;;;;;22.52;49.63;60806.06;4947011;28;45770;-90
2023/06/16 03:42:19;;;;;;;;;18.00;18.00;;;;;22.50;49.90;60696.38;4897111;28;45455;-90
2023/06/16 03:44:44;;;;;;;;;19.33;18.33;;;;;22.35;49.85;60680.63;4965418;28;45536;-91
2023/06/16 03:47:10;;;;;;;;;16.67;16.67;;;;;22.25;49.67;60551.84;4996933;28;47425;-89
2023/06/16 03:49:35;;;;;;;;;19.33;18.33;;;;;22.50;49.72;60281.69;4954861;28;45415;-91
2023/06/16 03:52:01;;;;;;;;;17.33;17.00;;;;;22.43;50.36;59863.56;4897740;29;45428;-89
2023/06/16 03:54:26;;;;;;;;;18.33;16.33;;;;;22.49;50.36;59707.91;4897132;28;45493;-91
2023/06/16 03:56:52;;;;;;;;;16.67;15.67;;;;;22.37;50.47;59571.88;4895435;28;46448;-89
2023/06/16 03:59:17;;;;;;;;;21.33;19.00;;;;;22.30;49.73;59595.25;4892861;28;45563;-89
2023/06/16 04:01:42;;;;;;;;;18.33;17.33;;;;;22.50;49.70;59440.63;4897350;29;45505;-89
2023/06/16 04:04:09;;;;;;;;;22.00;20.00;;;;;22.44;50.08;58885.53;4897331;29;45942;-92
2023/06/16 04:06:35;;;;;;;;;20.00;18.67;;;;;22.19;50.46;58997.56;4895301;29;46700;-91
2023/06/16 04:09:02;;;;;;;;;17.67;16.67;;;;;22.48;50.63;58825.63;4892236;29;45486;-93
2023/06/16 04:11:28;;;;;;;;;14.67;14.67;;;;;22.01;50.15;58738.44;4895649;28;45532;-91
2023/06/16 04:13:53;;;;;;;;;15.33;15.33;;;;;22.41;50.63;58320.78;4897261;28;45469;-83
2023/06/16 04:16:19;;;;;;;;;18.67;16.00;;;;;22.27;51.06;58186.72;4898940;28;45467;-88
2023/06/16 04:18:48;;;;;;;;;16.00;16.00;;;;;22.08;50.34;57961.25;4896771;28;45536;-93
2023/06/16 04:21:16;;;;;;;;;18.67;17.00;;;;;22.41;50.50;57692.47;4895827;28;45679;-91
2023/06/16 04:23:42;;;;;;;;;15.33;15.33;;;;;22.38;50.51;57278.41;4896509;29;45435;-90
2023/06/16 04:26:08;;;;;;;;;17.33;14.67;;;;;22.20;50.67;56927.97;4895485;29;46630;-87
2023/06/16 04:28:38;;;;;;;;;16.67;15.00;;;;;22.27;51.26;56590.66;4901011;28;45534;-88
2023/06/16 04:31:04;;;;;;;;;12.67;12.67;;;;;22.14;51.42;56044.53;4882209;29;45568;-88
2023/06/16 04:33:30;;;;;;;;;16.33;16.33;;;;;22.23;51.43;55803.13;4935014;28;45491;-88
2023/06/16 04:35:55;;;;;;;;;14.67;13.33;;;;;22.25;51.47;55767.00;4899733;28;45416;-86
2023/06/16 04:38:22;;;;;;;;;18.00;15.67;;;;;22.21;51.60;55248.13;4871913;28;45757;-88
2023/06/16 04:40:48;;;;;;;;;17.00;15.67;;;;;22.26;51.40;55368.38;4896740;28;45724;-87
2023/06/16 04:43:14;;;;;;;;;16.00;14.67;;;;;22.27;51.09;54936.63;4899309;28;45497;-88
2023/06/16 04:45:39;;;;;;;;;15.67;15.67;;;;;22.12;51.51;54507.28;4878823;28;46920;-87
2023/06/16 04:48:04;;;;;;;;;17.33;15.67;;;;;22.34;51.18;54176.00;4896254;28;45520;-87
2023/06/16 04:50:30;;;;;;;;;18.33;14.33;;;;;22.33;50.96;54207.25;4895060;28;45501;-87
2023/06/16 04:52:56;;;;;;;;;20.67;17.33;;;;;22.18;51.25;54032.09;4907938;28;45632;-85
2023/06/16 04:55:21;;;;;;;;;18.67;18.67;;;;;22.18;51.88;53439.06;4913430;28;46834;-87
2023/06/16 04:57:47;;;;;;;;;14.00;11.67;;;;;22.34;51.59;53515.72;4948576;28;45860;-87
2023/06/16 05:00:13;;;;;;;;;18.33;16.00;;;;;22.11;51.38;53577.91;4891011;28;45559;-87
2023/06/16 05:02:39;;;;;;;;;22.33;19.67;;;;;22.27;51.88;52741.31;4899726;28;47633;-88
2023/06/16 05:05:04;;;;;;;;;16.67;15.33;;;;;22.27;51.20;52966.69;4894024;28;45519;-88
2023/06/16 05:07:31;;;;;;;;;16.33;15.00;;;;;22.32;51.28;52509.78;4889463;29;45725;-88
2023/06/16 05:09:56;;;;;;;;;15.67;14.33;;;;;22.35;51.32;52034.94;4898756;28;45663;-88
2023/06/16 05:12:24;;;;;;;;;17.00;16.67;;;;;22.40;51.74;51234.19;4889959;28;46090;-90
2023/06/16 05:14:50;;;;;;;;;17.00;17.00;;;;;22.21;51.42;50836.84;4895442;28;46970;-88
2023/06/16 05:17:15;;;;;;;;;16.33;16.33;;;;;22.38;51.38;51364.28;4891117;28;45511;-89
2023/06/16 05:19:40;;;;;;;;;16.00;15.00;;;;;22.54;51.31;50809.81;4890863;28;45516;-85
2023/06/16 05:22:06;;;;;;;;;20.00;19.67;;;;;22.60;51.56;51098.66;4884221;29;45845;-87
2023/06/16 05:24:31;;;;;;;;;18.00;18.00;;;;;22.65;51.41;50623.25;4890217;28;48117;-87
2023/06/16 05:26:56;;;;;;;;;17.67;17.00;;;;;22.64;51.44;51043.19;4887239;28;45504;-92
2023/06/16 05:29:22;;;;;;;;;16.67;16.67;;;;;22.67;51.38;50458.66;4884608;28;49101;-90
2023/06/16 05:31:47;;;;;;;;;19.00;17.00;;;;;;;;4925358;28;45452;-89
2023/06/16 05:34:12;;;;;;;;;19.00;17.00;;;;;22.76;51.63;49814.53;4893522;29;45981;-89
2023/06/16 05:36:38;;;;;;;;;16.33;16.33;;;;;22.81;50.54;50983.19;4887893;29;45555;-89
2023/06/16 05:39:03;;;;;;;;;22.33;19.00;;;;;22.85;50.73;51638.63;4883109;28;45575;-89
2023/06/16 05:41:29;;;;;;;;;24.00;18.33;;;;;22.89;50.73;51806.47;4887173;29;45491;-88
2023/06/16 05:43:55;;;;;;;;;15.33;15.33;;;;;22.83;50.78;51183.16;4886282;28;46323;-88
2023/06/16 05:46:24;;;;;;;;;16.67;15.33;;;;;22.96;50.12;52419.28;4891415;28;45566;-88
2023/06/16 05:48:49;;;;;;;;;21.67;17.00;;;;;22.90;49.88;52567.34;4891830;28;45733;-87
2023/06/16 05:51:15;;;;;;;;;22.67;17.67;;;;;23.03;50.06;52052.34;4893939;28;45808;-88
2023/06/16 05:53:40;;;;;;;;;15.67;13.67;;;;;22.95;49.90;52469.84;4896937;28;46132;-87
2023/06/16 05:56:06;;;;;;;;;18.67;18.00;;;;;23.09;49.84;52159.88;4876979;28;45496;-90
2023/06/16 05:58:36;;;;;;;;;22.33;18.33;;;;;23.23;50.23;52034.66;4893868;29;45528;-89
2023/06/16 06:01:07;;;;;;;;;21.67;20.33;;;;;23.32;49.94;51575.28;4901646;28;45536;-92
2023/06/16 06:03:33;;;;;;;;;18.00;18.00;;;;;23.22;49.52;51899.44;4891491;28;46707;-91
2023/06/16 06:05:58;;;;;;;;;18.00;18.00;;;;;23.43;49.32;52111.47;4897370;28;45523;-94
2023/06/16 06:08:27;;;;;;;;;21.00;19.67;;;;;23.41;49.65;52384.22;4893511;28;45533;-95
2023/06/16 06:10:53;;;;;;;;;19.00;19.00;;;;;23.47;49.41;52445.72;4900789;28;45418;-91
2023/06/16 06:13:18;;;;;;;;;18.00;18.00;;;;;23.71;49.14;52935.53;4894387;28;47201;-88
2023/06/16 06:15:44;;;;;;;;;17.33;17.33;;;;;23.81;48.68;53837.41;4888565;28;52238;-92
2023/06/16 06:18:10;;;;;;;;;17.67;17.67;;;;;23.59;48.83;53968.34;4907453;28;45866;-91
2023/06/16 06:20:37;;;;;;;;;20.00;17.67;;;;;23.74;48.50;53618.81;4922363;28;45893;-91
2023/06/16 06:23:02;;;;;;;;;19.00;18.67;;;;;23.97;47.79;54368.63;4895478;28;46656;-92
2023/06/16 06:25:28;;;;;;;;;15.33;13.33;;;;;23.91;48.00;55270.44;4893213;28;45887;-89
2023/06/16 06:27:53;;;;;;;;;20.33;20.33;;;;;23.87;47.34;55492.72;4888571;28;45483;-92
2023/06/16 06:30:18;;;;;;;;;21.00;17.00;;;;;23.98;47.72;55125.94;4895355;28;45770;-93
2023/06/16 06:32:44;;;;;;;;;17.00;17.00;;;;;24.17;47.65;54901.78;4894065;28;46072;-92
2023/06/16 06:35:10;;;;;;;;;18.33;18.33;;;;;24.32;47.42;55933.78;4893893;28;45674;-91
2023/06/16 06:37:36;;;;;;;;;18.33;14.33;;;;;24.45;46.98;55978.25;4892058;28;45865;-93
2023/06/16 06:40:01;;;;;;;;;15.00;15.00;;;;;24.51;46.32;56121.53;4933960;28;45439;-92
2023/06/16 06:42:27;;;;;;;;;15.67;15.67;;;;;24.70;45.92;57252.53;4900244;28;45620;-92
2023/06/16 06:44:53;;;;;;;;;17.33;15.67;;;;;24.58;46.34;57017.88;4892429;28;45429;-93
2023/06/16 06:47:19;;;;;;;;;17.33;16.00;;;;;24.78;45.36;57770.19;4899418;28;47348;-92
2023/06/16 06:49:44;;;;;;;;;18.67;17.00;;;;;24.93;45.43;58278.41;4874143;28;45502;-94
2023/06/16 06:52:10;;;;;;;;;19.33;18.33;;;;;24.96;44.57;59112.59;4896344;28;46309;-93
2023/06/16 06:54:35;;;;;;;;;16.00;16.00;;;;;24.90;44.23;59862.13;4889025;28;50212;-93
2023/06/16 06:57:00;;;;;;;;;18.33;17.33;;;;;24.98;45.12;58917.63;4888694;28;58564;-91
2023/06/16 06:59:26;;;;;;;;;20.33;18.33;;;;;25.19;44.48;59416.94;4896588;29;45401;-92
2023/06/16 07:01:51;;;;;;;;;17.33;15.33;;;;;25.18;44.21;59847.41;4893461;28;45892;-93
2023/06/16 07:04:16;;;;;;;;;19.00;16.67;;;;;25.05;43.92;60204.31;4894724;28;58198;-92
2023/06/16 07:06:42;;;;;;;;;16.00;14.33;;;;;25.30;44.56;59807.97;4912766;28;45430;-93
2023/06/16 07:09:07;;;;;;;;;16.00;15.00;;;;;25.28;43.98;60220.16;4894959;29;45628;-92
2023/06/16 07:11:33;;;;;;;;;18.67;16.67;;;;;25.32;43.57;60922.94;4897340;29;46934;-92
2023/06/16 07:14:01;;;;;;;;;16.67;15.00;;;;;25.59;43.47;60734.59;4897573;29;45341;-93
2023/06/16 07:16:27;;;;;;;;;16.33;15.33;;;;;25.66;42.83;61358.25;4897631;29;45723;-92
2023/06/16 07:18:52;;;;;;;;;14.00;14.00;;;;;25.76;43.08;61793.34;4897653;28;45468;-94
2023/06/16 07:21:18;;;;;;;;;14.00;14.00;;;;;25.81;42.30;62217.88;4896873;29;45725;-91
2023/06/16 07:23:43;;;;;;;;;18.67;16.33;;;;;25.80;41.72;62597.59;4896609;28;45783;-89
2023/06/16 07:26:09;;;;;;;;;13.33;13.33;;;;;25.96;41.24;62909.25;4896510;28;45769;-88
2023/06/16 07:28:34;;;;;;;;;14.00;14.00;;;;;26.08;40.54;63834.34;4889779;28;45607;-87
2023/06/16 07:31:00;;;;;;;;;13.33;13.33;;;;;26.07;40.77;64012.47;4896404;28;46260;-90
2023/06/16 07:33:25;;;;;;;;;16.33;14.00;;;;;26.21;40.00;64557.50;4884030;28;45700;-91
2023/06/16 07:35:51;;;;;;;;;14.67;14.33;;;;;26.09;40.02;64818.19;4893904;29;45630;-89
2023/06/16 07:38:16;;;;;;;;;14.33;14.33;;;;;26.27;39.94;64654.09;4887631;28;45661;-87
2023/06/16 07:40:41;;;;;;;;;15.33;14.33;;;;;26.35;39.74;64902.94;4893392;28;53443;-88
2023/06/16 07:43:07;;;;;;;;;15.00;15.00;;;;;26.15;40.00;65089.69;4895585;28;45629;-89
2023/06/16 07:45:33;;;;;;;;;12.00;11.00;;;;;26.42;40.12;65022.38;4893186;28;45634;-89
2023/06/16 07:48:02;;;;;;;;;17.67;14.00;;;;;26.42;40.29;64949.25;4909216;28;46365;-89
2023/06/16 07:50:33;;;;;;;;;14.33;13.67;;;;;26.46;39.62;65040.41;4888684;28;46038;-91
2023/06/16 07:53:01;;;;;;;;;14.67;14.67;;;;;26.39;39.56;65051.00;4892803;28;45489;-90
2023/06/16 07:55:26;;;;;;;;;15.33;15.33;;;;;26.47;41.22;64388.06;4887102;28;45908;-89
2023/06/16 07:57:52;;;;;;;;;15.00;15.00;;;;;26.50;39.86;64931.09;4881505;28;45512;-89
2023/06/16 08:00:27;;;;;;;;;16.33;12.33;;;;;26.37;41.05;64225.34;4884996;28;46305;-87
2023/06/16 08:02:52;;;;;;;;;15.00;15.00;;;;;27.03;40.30;64866.06;4890136;28;45587;-88
2023/06/16 08:05:18;;;;;;;;;18.33;16.67;;;;;27.11;40.73;64302.78;4906016;28;45563;-94
2023/06/16 08:07:46;;;;;;;;;16.00;16.00;;;;;27.12;40.22;64515.41;4898826;28;45755;-95
2023/06/16 08:10:13;;;;;;;;;19.33;16.67;;;;;27.06;41.11;64066.81;4898096;28;47053;-87
2023/06/16 08:12:38;;;;;;;;;15.33;15.33;;;;;27.11;38.31;65577.41;4898592;28;45452;-89
2023/06/16 08:15:07;;;;;;;;;21.33;19.67;;;;;27.08;37.67;66347.13;4896900;28;45444;-92
2023/06/16 08:17:43;;;;;;;;;18.00;18.00;;;;;26.85;39.51;65730.34;4899688;29;45500;-94
2023/06/16 08:20:14;;;;;;;;;21.00;16.67;;;;;26.95;39.76;65579.50;4896144;28;46809;-92
2023/06/16 08:22:40;;;;;;;;;19.00;15.00;;;;;27.35;39.51;65538.81;4891966;29;45522;-93
2023/06/16 08:25:06;;;;;;;;;22.67;18.67;;;;;27.20;38.67;65896.28;4888281;29;45716;-93
2023/06/16 08:27:31;;;;;;;;;21.00;18.33;;;;;27.64;37.71;66252.34;4901257;28;45359;-91
2023/06/16 08:29:57;;;;;;;;;23.67;19.33;;;;;27.24;38.47;65708.75;4890792;29;46970;-93
2023/06/16 08:32:23;;;;;;;;;17.00;15.67;;;;;27.90;38.29;66034.19;4894023;28;45559;-92
2023/06/16 08:34:48;;;;;;;;;16.50;16.00;;;;;27.99;36.79;66671.97;4882002;29;45950;-93
2023/06/16 08:37:14;;;;;;;;;17.67;16.00;;;;;28.12;38.12;66291.66;4874300;28;45523;-95
2023/06/16 08:39:43;;;;;;;;;16.67;15.00;;;;;28.02;38.48;66093.41;4893343;29;46923;-92
2023/06/16 08:42:09;;;;;;;;;14.00;14.00;;;;;28.34;36.73;66672.81;4896231;28;45578;-93
2023/06/16 08:44:35;;;;;;;;;16.33;15.00;;;;;28.07;37.71;66226.78;4880378;29;45461;-94
2023/06/16 08:47:02;;;;;;;;;16.00;16.00;;;;;29.69;36.47;65880.84;4904841;28;45385;-94
2023/06/16 08:49:27;;;;;;;;;16.67;14.67;;;;;31.48;34.46;65759.13;4882861;29;46240;-95
2023/06/16 08:51:56;;;;;;;;;16.33;15.33;;;;;31.70;31.78;67846.72;4887693;29;45464;-96
2023/06/16 08:54:25;;;;;;;;;15.33;14.00;;;;;31.02;32.47;68115.81;4880184;28;45397;-96
2023/06/16 08:56:51;;;;;;;;;16.33;15.33;;;;;31.06;34.14;67798.22;4884700;28;45567;-95
2023/06/16 08:59:18;;;;;;;;;16.67;15.67;;;;;31.48;33.53;67845.78;4897062;28;46437;-96
2023/06/16 09:01:46;;;;;;;;;13.00;13.00;;;;;31.24;33.89;68045.25;4881184;29;45974;-96
2023/06/16 09:04:13;;;;;;;;;12.67;12.67;;;;;30.74;33.43;68114.34;4895150;29;45408;-96
2023/06/16 09:06:47;;;;;;;;;12.67;11.67;;;;;30.89;32.76;68248.69;4889337;29;45743;-96
2023/06/16 09:09:13;;;;;;;;;16.33;15.67;;;;;30.90;33.57;68241.66;4893631;29;46636;-91
2023/06/16 09:11:39;;;;;;;;;16.67;12.67;;;;;31.01;33.45;68297.63;4882205;29;45429;-90
2023/06/16 09:16:39;;;;;;;;;18.00;14.33;;;;;31.27;34.00;68354.72;4876020;28;47121;-78
2023/06/16 09:19:08;;;;;;;;;14.67;13.00;;;;;31.37;33.29;68472.38;4872921;28;46425;-78
2023/06/16 09:21:34;;;;;;;;;8.33;8.33;;;;;31.40;32.26;68601.59;4865702;28;45505;-78
2023/06/16 09:24:00;;;;;;;;;13.67;13.00;;;;;31.58;33.01;68466.91;4877493;28;45812;-78
2023/06/16 09:26:30;;;;;;;;;14.00;13.00;;;;;31.57;33.07;68481.56;4877833;28;45479;-78
2023/06/16 09:28:56;;;;;;;;;12.33;11.33;;;;;31.83;32.02;68848.38;4906627;28;46210;-78
2023/06/16 09:31:27;;;;;;;;;12.00;12.00;;;;;31.90;31.67;68806.78;4957102;28;45464;-78
2023/06/16 09:33:52;;;;;;;;;13.75;11.75;;;;;32.09;30.79;68921.56;4883358;28;45368;-78
2023/06/16 09:36:27;;;;;;;;;13.67;11.67;;;;;32.33;31.01;69026.44;4890922;28;45497;-78
2023/06/16 09:38:53;;;;;;;;;15.67;13.00;;;;;32.44;31.11;68989.56;4871698;28;46167;-78
2023/06/16 09:41:18;;;;;;;;;8.33;8.33;;;;;32.78;28.57;69165.41;4848661;28;45522;-78
2023/06/16 09:43:44;;;;;;;;;12.67;10.33;;;;;32.97;30.94;69080.97;4870132;28;46583;-78
2023/06/16 09:46:14;;;;;;;;;14.00;13.33;;;;;33.31;28.65;69224.06;4877230;28;45465;-78
2023/06/16 09:48:49;;;;;;;;;14.67;12.00;;;;;34.05;27.97;69301.47;4873415;28;45504;-78
2023/06/16 09:51:21;;;;;;;;;10.00;10.00;;;;;35.68;25.26;69252.84;4859527;28;45516;-78
2023/06/16 09:53:48;;;;;;;;;8.67;8.00;;;;;36.89;24.25;69264.63;4889483;28;45404;-78
2023/06/16 09:56:17;;;;;;;;;9.33;9.33;;;;;37.76;23.98;69335.00;4875455;28;45502;-78
2023/06/16 09:58:44;;;;;;;;;10.00;10.00;;;;;37.87;24.20;69299.84;4872986;28;47147;-78
2023/06/16 10:01:10;;;;;;;;;12.33;11.00;;;;;37.96;24.75;69371.22;4876585;28;45417;-78
2023/06/16 10:03:41;;;;;;;;;10.67;10.67;;;;;38.17;22.52;69274.41;4876494;28;45480;-78
2023/06/16 10:06:13;;;;;;;;;14.00;12.00;;;;;38.37;24.68;69346.50;4903930;28;45438;-78
2023/06/16 10:08:40;;;;;;;;;11.33;9.67;;;;;38.64;22.72;69231.22;4883543;28;46732;-79
2023/06/16 10:11:09;;;;;;;;;9.33;9.33;;;;;38.68;20.97;69197.22;4871793;28;45388;-78
2023/06/16 10:13:36;;;;;;;;;11.67;11.33;;;;;38.91;22.35;69270.66;4878157;28;45491;-78
2023/06/16 10:16:04;;;;;;;;;11.00;11.00;;;;;38.97;22.89;69318.66;4858855;28;45540;-78
2023/06/16 10:18:31;;;;;;;;;14.33;12.33;;;;;39.12;21.75;69128.81;4915644;28;47193;-78
2023/06/16 10:20:58;;;;;;;;;13.00;10.33;;;;;39.30;22.80;69336.94;4858643;28;45438;-78
2023/06/16 10:23:24;;;;;;;;;7.67;6.67;;;;;39.29;20.86;69042.41;4878995;28;45444;-79
2023/06/16 10:25:50;;;;;;;;;8.67;7.67;;;;;39.46;20.88;69181.38;4876469;28;45647;-78
2023/06/16 10:28:17;;;;;;;;;10.00;10.00;;;;;39.36;22.16;69269.88;4875761;28;45476;-78
2023/06/16 10:30:44;;;;;;;;;8.67;8.67;;;;;39.39;21.99;69200.84;4877864;28;45352;-78
2023/06/16 10:33:22;;;;;;;;;11.67;11.00;;;;;39.30;21.21;69140.44;4875791;28;45537;-79
2023/06/16 10:35:55;;;;;;;;;8.00;8.00;;;;;39.21;21.64;69252.81;4876083;28;45617;-79
2023/06/16 10:38:41;;;;;;;;;12.00;11.00;;;;;39.00;21.91;69126.38;4871088;28;46370;-79
2023/06/16 10:41:12;;;;;;;;;9.00;9.00;;;;;39.02;21.95;69233.25;4881381;29;45525;-79
2023/06/16 10:43:37;;;;;;;;;13.00;12.00;;;;;38.78;22.06;69241.56;4861843;28;45430;-79
2023/06/16 10:46:16;;;;;;;;;11.67;10.33;;;;;38.40;22.33;69233.97;4872161;28;45537;-78
2023/06/16 10:49:07;;;;;;;;;8.67;8.67;;;;;38.25;20.12;69310.28;4876475;28;47464;-78
2023/06/16 10:51:49;;;;;;;;;11.00;9.33;;;;;37.95;20.12;69329.19;4878548;28;45464;-78
2023/06/16 10:54:43;;;;;;;;;13.00;12.00;;;;;37.83;21.72;69268.13;4878817;29;45973;-78
2023/06/16 10:57:09;;;;;;;;;10.00;10.00;;;;;37.90;20.67;69361.38;4899767;28;45520;-78
2023/06/16 10:59:54;;;;;;;;;9.00;7.33;;;;;37.76;21.50;69346.03;4872028;28;45570;-78
2023/06/16 11:02:27;;;;;;;;;11.00;10.00;;;;;37.74;22.95;69409.94;4873967;28;45469;-78
2023/06/16 11:05:11;;;;;;;;;12.33;12.33;;;;;37.63;21.78;69369.38;4897986;28;45813;-78
2023/06/16 11:07:37;;;;;;;;;10.00;10.00;;;;;37.62;22.33;69378.66;4879378;28;45683;-78
2023/06/16 11:10:03;;;;;;;;;10.67;9.67;;;;;37.54;23.20;69460.88;4886714;28;46498;-78
2023/06/16 11:12:28;;;;;;;;;12.67;11.67;;;;;37.60;22.84;69365.84;4877854;28;45630;-78
2023/06/16 11:14:55;;;;;;;;;10.33;8.67;;;;;37.64;21.15;69381.59;4860584;28;45409;-78
2023/06/16 11:17:22;;;;;;;;;10.67;10.33;;;;;37.75;22.49;69424.94;4872440;28;45488;-78
2023/06/16 11:19:51;;;;;;;;;10.33;10.33;;;;;37.62;23.60;69437.19;4870451;28;46063;-78
2023/06/16 11:22:26;;;;;;;;;11.00;9.33;;;;;37.45;23.60;69417.13;4875633;28;45968;-79
2023/06/16 11:24:51;;;;;;;;;12.33;10.33;;;;;37.18;22.89;69433.94;4878744;28;45674;-79